sensor_id;sensor_type;location;lat;lon;timestamp;pressure;altitude;pressure_sealevel;temperature;humidity
50592;BME280;36548;50.506;30.834;2022-07-23T00:00:42;100077.93;;;22.57;50.19
50592;BME280;36548;50.506;30.834;2022-07-23T00:01:53;100084.84;;;22.44;50.24
50592;BME280;36548;50.506;30.834;2022-07-23T00:03:21;100078.04;;;22.40;50.35
50592;BME280;36548;50.506;30.834;2022-07-23T00:04:37;100070.28;;;22.52;50.39
50592;BME280;36548;50.506;30.834;2022-07-23T00:05:46;100074.46;;;22.40;50.40
50592;BME280;36548;50.506;30.834;2022-07-23T00:07:02;100073.07;;;22.44;50.59
50592;BME280;36548;50.506;30.834;2022-07-23T00:08:11;100078.59;;;22.36;50.57
50592;BME280;36548;50.506;30.834;2022-07-23T00:09:22;100079.61;;;22.35;50.58
50592;BME280;36548;50.506;30.834;2022-07-23T00:10:37;100077.52;;;22.45;50.58
50592;BME280;36548;50.506;30.834;2022-07-23T00:11:46;100076.55;;;22.38;50.56
50592;BME280;36548;50.506;30.834;2022-07-23T00:12:55;100082.02;;;22.38;50.49
50592;BME280;36548;50.506;30.834;2022-07-23T00:14:11;100081.59;;;22.49;50.46
50592;BME280;36548;50.506;30.834;2022-07-23T00:15:21;100079.43;;;22.36;50.52
50592;BME280;36548;50.506;30.834;2022-07-23T00:16:56;100078.17;;;22.47;50.63
50592;BME280;36548;50.506;30.834;2022-07-23T00:18:06;100088.50;;;22.37;50.54
50592;BME280;36548;50.506;30.834;2022-07-23T00:19:39;100092.27;;;22.36;50.61
50592;BME280;36548;50.506;30.834;2022-07-23T00:21:00;100100.47;;;22.36;50.58
50592;BME280;36548;50.506;30.834;2022-07-23T00:22:17;100094.45;;;22.32;50.61
50592;BME280;36548;50.506;30.834;2022-07-23T00:23:37;100091.25;;;22.28;50.73
50592;BME280;36548;50.506;30.834;2022-07-23T00:24:56;100087.83;;;22.26;50.72
50592;BME280;36548;50.506;30.834;2022-07-23T00:26:07;100086.80;;;22.27;50.74
50592;BME280;36548;50.506;30.834;2022-07-23T00:27:31;100087.81;;;22.35;50.72
50592;BME280;36548;50.506;30.834;2022-07-23T00:28:41;100085.14;;;22.18;50.93
50592;BME280;36548;50.506;30.834;2022-07-23T00:29:57;100086.44;;;22.30;51.00
50592;BME280;36548;50.506;30.834;2022-07-23T00:31:06;100092.50;;;22.18;50.95
50592;BME280;36548;50.506;30.834;2022-07-23T00:32:22;100087.17;;;22.24;51.09
50592;BME280;36548;50.506;30.834;2022-07-23T00:33:34;100085.03;;;22.11;51.10
50592;BME280;36548;50.506;30.834;2022-07-23T00:34:50;100085.03;;;22.11;51.57
50592;BME280;36548;50.506;30.834;2022-07-23T00:36:19;100090.05;;;21.91;51.87
50592;BME280;36548;50.506;30.834;2022-07-23T00:37:34;100089.22;;;21.91;52.30
50592;BME280;36548;50.506;30.834;2022-07-23T00:38:44;100089.09;;;21.76;52.37
50592;BME280;36548;50.506;30.834;2022-07-23T00:40:11;100086.90;;;21.71;52.57
50592;BME280;36548;50.506;30.834;2022-07-23T00:41:26;100090.95;;;21.84;52.50
50592;BME280;36548;50.506;30.834;2022-07-23T00:42:35;100092.00;;;21.74;52.42
50592;BME280;36548;50.506;30.834;2022-07-23T00:43:45;100099.36;;;21.74;52.46
50592;BME280;36548;50.506;30.834;2022-07-23T00:44:54;100093.56;;;21.69;52.57
50592;BME280;36548;50.506;30.834;2022-07-23T00:46:04;100089.12;;;21.68;52.70
50592;BME280;36548;50.506;30.834;2022-07-23T00:47:20;100085.52;;;21.75;52.84
50592;BME280;36548;50.506;30.834;2022-07-23T00:48:30;100090.31;;;21.65;52.91
50592;BME280;36548;50.506;30.834;2022-07-23T00:49:45;100087.92;;;21.70;53.11
50592;BME280;36548;50.506;30.834;2022-07-23T00:50:54;100088.13;;;21.60;53.06
50592;BME280;36548;50.506;30.834;2022-07-23T01:03:41;100102.11;;;21.66;53.30
50592;BME280;36548;50.506;30.834;2022-07-23T01:04:52;100101.94;;;21.51;53.38
50592;BME280;36548;50.506;30.834;2022-07-23T01:06:02;100108.80;;;21.55;53.29
50592;BME280;36548;50.506;30.834;2022-07-23T01:07:18;100100.42;;;21.56;53.56
50592;BME280;36548;50.506;30.834;2022-07-23T01:08:28;100103.49;;;21.45;53.53
50592;BME280;36548;50.506;30.834;2022-07-23T01:09:37;100101.60;;;21.45;53.52
50592;BME280;36548;50.506;30.834;2022-07-23T01:10:48;100098.87;;;21.45;53.55
50592;BME280;36548;50.506;30.834;2022-07-23T01:12:04;100093.42;;;21.54;53.57
50592;BME280;36548;50.506;30.834;2022-07-23T01:13:16;100095.30;;;21.45;53.44
50592;BME280;36548;50.506;30.834;2022-07-23T01:14:26;100098.87;;;21.45;53.42
50592;BME280;36548;50.506;30.834;2022-07-23T01:15:41;100100.23;;;21.50;53.69
50592;BME280;36548;50.506;30.834;2022-07-23T01:16:51;100103.50;;;21.37;53.75
50592;BME280;36548;50.506;30.834;2022-07-23T01:18:07;100095.96;;;21.47;53.76
50592;BME280;36548;50.506;30.834;2022-07-23T01:19:19;100112.89;;;21.34;53.87
50592;BME280;36548;50.506;30.834;2022-07-23T01:20:46;100108.09;;;21.36;53.82
50592;BME280;36548;50.506;30.834;2022-07-23T01:22:03;100101.42;;;21.47;53.82
50592;BME280;36548;50.506;30.834;2022-07-23T01:23:13;100115.09;;;21.39;53.76
50592;BME280;36548;50.506;30.834;2022-07-23T01:24:25;100113.06;;;21.33;53.98
50592;BME280;36548;50.506;30.834;2022-07-23T01:25:48;100106.40;;;21.43;54.00
50592;BME280;36548;50.506;30.834;2022-07-23T01:26:58;100120.38;;;21.32;54.01
50592;BME280;36548;50.506;30.834;2022-07-23T01:28:08;100116.64;;;21.33;54.02
50592;BME280;36548;50.506;30.834;2022-07-23T01:29:36;100120.56;;;21.31;54.11
50592;BME280;36548;50.506;30.834;2022-07-23T01:30:52;100111.34;;;21.40;54.21
50592;BME280;36548;50.506;30.834;2022-07-23T01:32:02;100120.73;;;21.29;54.15
50592;BME280;36548;50.506;30.834;2022-07-23T01:33:17;100121.25;;;21.41;54.19
50592;BME280;36548;50.506;30.834;2022-07-23T01:34:27;100113.24;;;21.31;54.16
50592;BME280;36548;50.506;30.834;2022-07-23T01:35:43;100119.89;;;21.28;54.28
50592;BME280;36548;50.506;30.834;2022-07-23T01:36:54;100121.09;;;21.26;54.39
50592;BME280;36548;50.506;30.834;2022-07-23T01:38:10;100120.55;;;21.39;54.36
50592;BME280;36548;50.506;30.834;2022-07-23T01:39:21;100131.66;;;21.29;54.36
50592;BME280;36548;50.506;30.834;2022-07-23T01:40:56;100120.23;;;21.34;54.49
50592;BME280;36548;50.506;30.834;2022-07-23T01:42:08;100115.98;;;21.23;54.47
50592;BME280;36548;50.506;30.834;2022-07-23T01:43:24;100122.97;;;21.34;54.49
50592;BME280;36548;50.506;30.834;2022-07-23T01:44:36;100118.88;;;21.21;54.50
50592;BME280;36548;50.506;30.834;2022-07-23T01:46:10;100112.91;;;21.18;54.54
50592;BME280;36548;50.506;30.834;2022-07-23T01:47:27;100115.80;;;21.16;54.65
50592;BME280;36548;50.506;30.834;2022-07-23T01:48:48;100120.73;;;21.04;55.10
50592;BME280;36548;50.506;30.834;2022-07-23T01:50:10;100121.09;;;21.01;55.22
50592;BME280;36548;50.506;30.834;2022-07-23T01:51:26;100103.18;;;21.07;55.46
50592;BME280;36548;50.506;30.834;2022-07-23T01:52:40;100112.40;;;20.81;55.96
50592;BME280;36548;50.506;30.834;2022-07-23T01:53:56;100116.14;;;20.80;56.33
50592;BME280;36548;50.506;30.834;2022-07-23T01:55:06;100120.35;;;20.66;56.51
50592;BME280;36548;50.506;30.834;2022-07-23T01:56:23;100109.50;;;20.83;56.34
50592;BME280;36548;50.506;30.834;2022-07-23T01:57:32;100126.15;;;20.63;56.62
50592;BME280;36548;50.506;30.834;2022-07-23T01:58:48;100115.23;;;20.55;57.27
50592;BME280;36548;50.506;30.834;2022-07-23T01:59:57;100121.86;;;20.52;57.05
50592;BME280;36548;50.506;30.834;2022-07-23T02:01:26;100127.66;;;20.49;57.13
50592;BME280;36548;50.506;30.834;2022-07-23T02:02:43;100118.14;;;20.61;57.13
50592;BME280;36548;50.506;30.834;2022-07-23T02:03:52;100118.98;;;20.62;56.65
50592;BME280;36548;50.506;30.834;2022-07-23T02:05:07;100123.80;;;20.76;56.59
50592;BME280;36548;50.506;30.834;2022-07-23T02:06:19;100116.13;;;20.72;56.36
50592;BME280;36548;50.506;30.834;2022-07-23T02:07:46;100130.97;;;20.77;56.13
50592;BME280;36548;50.506;30.834;2022-07-23T02:08:55;100121.42;;;20.82;56.02
50592;BME280;36548;50.506;30.834;2022-07-23T02:10:12;100124.34;;;20.97;56.00
50592;BME280;36548;50.506;30.834;2022-07-23T02:11:21;100122.45;;;20.89;55.93
50592;BME280;36548;50.506;30.834;2022-07-23T02:12:38;100123.82;;;21.01;55.86
50592;BME280;36548;50.506;30.834;2022-07-23T02:13:47;100130.31;;;20.92;55.85
50592;BME280;36548;50.506;30.834;2022-07-23T02:15:14;100127.91;;;20.97;55.71
50592;BME280;36548;50.506;30.834;2022-07-23T02:16:30;100120.92;;;21.11;55.54
50592;BME280;36548;50.506;30.834;2022-07-23T02:17:41;100129.80;;;21.05;55.56
50592;BME280;36548;50.506;30.834;2022-07-23T02:18:57;100123.65;;;21.11;55.53
50592;BME280;36548;50.506;30.834;2022-07-23T02:20:09;100133.20;;;21.07;55.59
50592;BME280;36548;50.506;30.834;2022-07-23T02:21:31;100128.92;;;21.29;55.27
50592;BME280;36548;50.506;30.834;2022-07-23T02:22:50;100134.07;;;21.24;55.08
50592;BME280;36548;50.506;30.834;2022-07-23T02:23:59;100134.38;;;21.37;55.00
50592;BME280;36548;50.506;30.834;2022-07-23T02:25:14;100134.38;;;21.62;54.59
50592;BME280;36548;50.506;30.834;2022-07-23T02:26:25;100131.83;;;21.60;54.40
50592;BME280;36548;50.506;30.834;2022-07-23T02:27:35;100134.20;;;21.63;53.80
50592;BME280;36548;50.506;30.834;2022-07-23T02:28:51;100132.83;;;21.68;53.89
50592;BME280;36548;50.506;30.834;2022-07-23T02:30:02;100142.20;;;21.49;54.08
50592;BME280;36548;50.506;30.834;2022-07-23T02:31:17;100140.69;;;21.54;54.31
50592;BME280;36548;50.506;30.834;2022-07-23T02:32:26;100140.36;;;21.41;54.34
50592;BME280;36548;50.506;30.834;2022-07-23T02:33:42;100130.82;;;21.53;54.55
50592;BME280;36548;50.506;30.834;2022-07-23T02:34:51;100136.09;;;21.46;54.34
50592;BME280;36548;50.506;30.834;2022-07-23T02:36:01;100131.47;;;21.47;54.31
50592;BME280;36548;50.506;30.834;2022-07-23T02:37:18;100128.39;;;21.58;54.22
50592;BME280;36548;50.506;30.834;2022-07-23T02:38:28;100129.25;;;21.51;54.56
50592;BME280;36548;50.506;30.834;2022-07-23T02:39:43;100135.04;;;21.64;54.26
50592;BME280;36548;50.506;30.834;2022-07-23T02:40:54;100144.12;;;21.56;54.26
50592;BME280;36548;50.506;30.834;2022-07-23T02:42:11;100136.07;;;21.71;54.32
50592;BME280;36548;50.506;30.834;2022-07-23T02:43:20;100138.82;;;21.63;54.05
50592;BME280;36548;50.506;30.834;2022-07-23T02:44:35;100131.09;;;21.75;54.14
50592;BME280;36548;50.506;30.834;2022-07-23T02:45:46;100144.45;;;21.70;54.30
50592;BME280;36548;50.506;30.834;2022-07-23T02:47:13;100136.73;;;21.73;53.99
50592;BME280;36548;50.506;30.834;2022-07-23T02:48:28;100138.77;;;21.88;53.88
50592;BME280;36548;50.506;30.834;2022-07-23T02:49:40;100142.36;;;21.80;53.83
50592;BME280;36548;50.506;30.834;2022-07-23T02:50:55;100133.78;;;21.91;53.67
50592;BME280;36548;50.506;30.834;2022-07-23T02:52:07;100139.45;;;21.82;53.73
50592;BME280;36548;50.506;30.834;2022-07-23T02:53:37;100138.42;;;21.83;53.60
50592;BME280;36548;50.506;30.834;2022-07-23T02:55:12;100134.11;;;21.96;53.94
50592;BME280;36548;50.506;30.834;2022-07-23T02:56:21;100138.05;;;21.94;53.80
50592;BME280;36548;50.506;30.834;2022-07-23T02:57:38;100142.28;;;22.05;53.38
50592;BME280;36548;50.506;30.834;2022-07-23T02:58:47;100143.66;;;22.01;53.35
50592;BME280;36548;50.506;30.834;2022-07-23T03:00:03;100142.91;;;22.15;53.19
50592;BME280;36548;50.506;30.834;2022-07-23T03:01:13;100140.56;;;22.04;52.94
50592;BME280;36548;50.506;30.834;2022-07-23T03:02:41;100147.42;;;22.00;53.28
50592;BME280;36548;50.506;30.834;2022-07-23T03:03:51;100149.48;;;21.98;53.28
50592;BME280;36548;50.506;30.834;2022-07-23T03:05:08;100142.25;;;22.13;53.52
50592;BME280;36548;50.506;30.834;2022-07-23T03:06:18;100149.94;;;22.09;53.32
50592;BME280;36548;50.506;30.834;2022-07-23T03:07:33;100139.08;;;22.33;53.06
50592;BME280;36548;50.506;30.834;2022-07-23T03:08:46;100158.59;;;22.29;52.85
50592;BME280;36548;50.506;30.834;2022-07-23T03:09:59;100153.11;;;22.38;52.77
50592;BME280;36548;50.506;30.834;2022-07-23T03:11:20;100150.16;;;22.47;52.47
50592;BME280;36548;50.506;30.834;2022-07-23T03:12:30;100153.32;;;22.59;52.58
50592;BME280;36548;50.506;30.834;2022-07-23T03:13:56;100155.22;;;22.82;51.87
50592;BME280;36548;50.506;30.834;2022-07-23T03:15:07;100164.34;;;22.74;51.64
50592;BME280;36548;50.506;30.834;2022-07-23T03:16:34;100160.53;;;22.84;51.52
50592;BME280;36548;50.506;30.834;2022-07-23T03:17:43;100158.83;;;22.83;51.92
50592;BME280;36548;50.506;30.834;2022-07-23T03:19:00;100166.30;;;22.89;51.03
50592;BME280;36548;50.506;30.834;2022-07-23T03:20:11;100166.06;;;22.75;51.23
50592;BME280;36548;50.506;30.834;2022-07-23T03:21:26;100157.80;;;22.84;51.38
50592;BME280;36548;50.506;30.834;2022-07-23T03:22:36;100165.60;;;22.63;51.50
50592;BME280;36548;50.506;30.834;2022-07-23T03:23:51;100164.40;;;22.66;51.98
50592;BME280;36548;50.506;30.834;2022-07-23T03:25:01;100164.53;;;22.73;51.72
50592;BME280;36548;50.506;30.834;2022-07-23T03:26:16;100162.53;;;22.90;51.54
50592;BME280;36548;50.506;30.834;2022-07-23T03:27:29;100163.80;;;22.79;51.26
50592;BME280;36548;50.506;30.834;2022-07-23T03:28:56;100166.20;;;22.51;51.79
50592;BME280;36548;50.506;30.834;2022-07-23T03:30:11;100155.30;;;22.74;51.86
50592;BME280;36548;50.506;30.834;2022-07-23T03:31:21;100165.32;;;22.81;51.65
50592;BME280;36548;50.506;30.834;2022-07-23T03:32:37;100160.64;;;22.67;51.70
50592;BME280;36548;50.506;30.834;2022-07-23T03:33:47;100164.21;;;22.68;51.52
50592;BME280;36548;50.506;30.834;2022-07-23T03:35:02;100154.42;;;22.73;51.64
50592;BME280;36548;50.506;30.834;2022-07-23T03:36:15;100156.98;;;22.75;51.43
50592;BME280;36548;50.506;30.834;2022-07-23T03:37:42;100156.69;;;22.93;51.18
50592;BME280;36548;50.506;30.834;2022-07-23T03:38:58;100150.75;;;23.12;51.45
50592;BME280;36548;50.506;30.834;2022-07-23T03:40:09;100165.16;;;23.06;50.60
50592;BME280;36548;50.506;30.834;2022-07-23T03:41:27;100156.72;;;23.16;50.63
50592;BME280;36548;50.506;30.834;2022-07-23T03:42:38;100159.46;;;23.16;50.64
50592;BME280;36548;50.506;30.834;2022-07-23T03:43:56;100167.84;;;23.38;50.33
50592;BME280;36548;50.506;30.834;2022-07-23T03:45:08;100168.89;;;23.13;50.34
50592;BME280;36548;50.506;30.834;2022-07-23T03:46:23;100165.00;;;23.46;50.09
50592;BME280;36548;50.506;30.834;2022-07-23T03:47:33;100160.86;;;23.50;49.60
50592;BME280;36548;50.506;30.834;2022-07-23T03:49:00;100170.35;;;23.77;49.80
50592;BME280;36548;50.506;30.834;2022-07-23T03:50:15;100161.41;;;23.98;48.92
50592;BME280;36548;50.506;30.834;2022-07-23T03:51:25;100161.89;;;24.02;48.63
50592;BME280;36548;50.506;30.834;2022-07-23T03:52:40;100168.10;;;24.41;48.22
50592;BME280;36548;50.506;30.834;2022-07-23T03:53:50;100162.70;;;24.47;47.84
50592;BME280;36548;50.506;30.834;2022-07-23T03:55:17;100165.42;;;24.62;47.99
50592;BME280;36548;50.506;30.834;2022-07-23T03:56:33;100157.68;;;25.09;46.25
50592;BME280;36548;50.506;30.834;2022-07-23T03:57:43;100171.75;;;25.21;46.53
50592;BME280;36548;50.506;30.834;2022-07-23T03:58:52;100164.34;;;25.22;45.45
50592;BME280;36548;50.506;30.834;2022-07-23T04:00:21;100160.55;;;25.44;46.13
50592;BME280;36548;50.506;30.834;2022-07-23T04:01:37;100164.02;;;25.53;44.66
50592;BME280;36548;50.506;30.834;2022-07-23T04:02:47;100168.22;;;25.49;45.44
50592;BME280;36548;50.506;30.834;2022-07-23T04:03:56;100160.95;;;25.41;45.21
50592;BME280;36548;50.506;30.834;2022-07-23T04:05:11;100161.36;;;25.66;45.47
50592;BME280;36548;50.506;30.834;2022-07-23T04:06:21;100163.16;;;25.52;44.97
50592;BME280;36548;50.506;30.834;2022-07-23T04:07:38;100161.05;;;25.83;45.08
50592;BME280;36548;50.506;30.834;2022-07-23T04:08:49;100166.85;;;25.66;44.53
50592;BME280;36548;50.506;30.834;2022-07-23T04:10:15;100153.30;;;25.93;44.80
50592;BME280;36548;50.506;30.834;2022-07-23T04:11:31;100163.23;;;25.94;44.09
50592;BME280;36548;50.506;30.834;2022-07-23T04:12:43;100159.30;;;26.03;43.89
50592;BME280;36548;50.506;30.834;2022-07-23T04:13:59;100154.52;;;26.19;43.68
50592;BME280;36548;50.506;30.834;2022-07-23T04:15:09;100160.22;;;26.17;44.30
50592;BME280;36548;50.506;30.834;2022-07-23T04:16:24;100163.08;;;26.44;44.09
50592;BME280;36548;50.506;30.834;2022-07-23T04:17:36;100160.33;;;26.44;43.40
50592;BME280;36548;50.506;30.834;2022-07-23T04:19:05;100161.44;;;26.57;43.59
50592;BME280;36548;50.506;30.834;2022-07-23T04:20:22;100158.95;;;26.68;42.92
50592;BME280;36548;50.506;30.834;2022-07-23T04:21:33;100158.27;;;26.53;42.77
50592;BME280;36548;50.506;30.834;2022-07-23T04:22:49;100160.75;;;26.41;42.92
50592;BME280;36548;50.506;30.834;2022-07-23T04:24:00;100168.55;;;26.31;43.22
50592;BME280;36548;50.506;30.834;2022-07-23T04:25:16;100156.95;;;26.42;43.45
50592;BME280;36548;50.506;30.834;2022-07-23T04:26:28;100156.02;;;26.22;43.47
50592;BME280;36548;50.506;30.834;2022-07-23T04:27:44;100150.58;;;26.35;43.58
50592;BME280;36548;50.506;30.834;2022-07-23T04:28:54;100160.92;;;26.33;43.70
50592;BME280;36548;50.506;30.834;2022-07-23T04:30:21;100163.27;;;26.36;43.60
50592;BME280;36548;50.506;30.834;2022-07-23T04:31:38;100160.18;;;26.59;43.45
50592;BME280;36548;50.506;30.834;2022-07-23T04:32:48;100164.38;;;26.48;43.34
50592;BME280;36548;50.506;30.834;2022-07-23T04:34:03;100158.30;;;26.66;43.39
50592;BME280;36548;50.506;30.834;2022-07-23T04:35:15;100163.02;;;26.73;43.14
50592;BME280;36548;50.506;30.834;2022-07-23T04:36:24;100162.00;;;26.94;42.85
50592;BME280;36548;50.506;30.834;2022-07-23T04:37:40;100156.74;;;27.26;42.22
50592;BME280;36548;50.506;30.834;2022-07-23T04:38:50;100165.44;;;27.22;41.81
50592;BME280;36548;50.506;30.834;2022-07-23T04:40:09;100153.16;;;27.45;41.80
50592;BME280;36548;50.506;30.834;2022-07-23T04:41:19;100157.19;;;27.43;41.69
50592;BME280;36548;50.506;30.834;2022-07-23T04:42:35;100155.27;;;27.56;41.31
50592;BME280;36548;50.506;30.834;2022-07-23T04:43:45;100155.05;;;27.58;41.51
50592;BME280;36548;50.506;30.834;2022-07-23T04:45:12;100157.59;;;27.73;41.23
50592;BME280;36548;50.506;30.834;2022-07-23T04:46:28;100160.53;;;28.05;40.38
50592;BME280;36548;50.506;30.834;2022-07-23T04:47:38;100158.84;;;27.97;40.45
50592;BME280;36548;50.506;30.834;2022-07-23T04:48:53;100147.99;;;28.09;40.40
50592;BME280;36548;50.506;30.834;2022-07-23T04:50:04;100164.78;;;28.01;39.97
50592;BME280;36548;50.506;30.834;2022-07-23T04:51:33;100163.94;;;28.07;40.17
50592;BME280;36548;50.506;30.834;2022-07-23T04:52:48;100152.22;;;28.18;40.18
50592;BME280;36548;50.506;30.834;2022-07-23T04:53:57;100156.48;;;28.14;40.04
50592;BME280;36548;50.506;30.834;2022-07-23T04:55:13;100150.30;;;28.19;40.43
50592;BME280;36548;50.506;30.834;2022-07-23T04:56:24;100161.17;;;28.07;40.17
50592;BME280;36548;50.506;30.834;2022-07-23T04:57:52;100151.80;;;28.15;40.51
50592;BME280;36548;50.506;30.834;2022-07-23T04:59:28;100159.33;;;28.46;39.57
50592;BME280;36548;50.506;30.834;2022-07-23T05:00:40;100157.20;;;28.41;39.41
50592;BME280;36548;50.506;30.834;2022-07-23T05:01:55;100158.09;;;28.35;39.52
50592;BME280;36548;50.506;30.834;2022-07-23T05:03:04;100167.07;;;28.17;39.66
50592;BME280;36548;50.506;30.834;2022-07-23T05:04:31;100166.25;;;28.10;39.89
50592;BME280;36548;50.506;30.834;2022-07-23T05:05:46;100157.30;;;28.21;40.16
50592;BME280;36548;50.506;30.834;2022-07-23T05:06:58;100168.36;;;28.08;40.18
50592;BME280;36548;50.506;30.834;2022-07-23T05:08:13;100163.41;;;28.30;39.62
50592;BME280;36548;50.506;30.834;2022-07-23T05:09:23;100164.52;;;28.22;39.83
50592;BME280;36548;50.506;30.834;2022-07-23T05:10:51;100169.81;;;28.24;39.34
50592;BME280;36548;50.506;30.834;2022-07-23T05:12:08;100165.55;;;28.28;39.36
50592;BME280;36548;50.506;30.834;2022-07-23T05:13:21;100165.15;;;28.18;39.90
50592;BME280;36548;50.506;30.834;2022-07-23T05:14:32;100170.45;;;28.19;39.46
50592;BME280;36548;50.506;30.834;2022-07-23T05:15:47;100165.92;;;28.38;39.65
50592;BME280;36548;50.506;30.834;2022-07-23T05:16:57;100169.59;;;28.26;39.78
50592;BME280;36548;50.506;30.834;2022-07-23T05:18:13;100167.39;;;28.48;39.98
50592;BME280;36548;50.506;30.834;2022-07-23T05:19:23;100171.65;;;28.44;39.71
50592;BME280;36548;50.506;30.834;2022-07-23T05:20:40;100173.27;;;28.58;39.57
50592;BME280;36548;50.506;30.834;2022-07-23T05:21:50;100172.27;;;28.46;39.40
50592;BME280;36548;50.506;30.834;2022-07-23T05:23:18;100174.39;;;28.50;39.59
50592;BME280;36548;50.506;30.834;2022-07-23T05:24:33;100166.72;;;28.52;39.79
50592;BME280;36548;50.506;30.834;2022-07-23T05:25:43;100166.72;;;28.52;39.71
50592;BME280;36548;50.506;30.834;2022-07-23T05:26:53;100173.11;;;28.53;39.59
50592;BME280;36548;50.506;30.834;2022-07-23T05:28:04;100174.52;;;28.62;39.58
50592;BME280;36548;50.506;30.834;2022-07-23T05:29:19;100165.92;;;28.90;39.05
50592;BME280;36548;50.506;30.834;2022-07-23T05:30:29;100163.16;;;28.90;38.87
50592;BME280;36548;50.506;30.834;2022-07-23T05:31:41;100171.86;;;28.87;39.09
50592;BME280;36548;50.506;30.834;2022-07-23T05:32:56;100168.34;;;29.05;38.85
50592;BME280;36548;50.506;30.834;2022-07-23T05:34:06;100168.98;;;29.07;38.94
50592;BME280;36548;50.506;30.834;2022-07-23T05:35:16;100166.14;;;29.21;38.70
50592;BME280;36548;50.506;30.834;2022-07-23T05:36:41;100171.58;;;29.34;38.79
50592;BME280;36548;50.506;30.834;2022-07-23T05:37:52;100170.18;;;29.50;38.27
50592;BME280;36548;50.506;30.834;2022-07-23T05:39:14;100168.92;;;29.71;38.03
50592;BME280;36548;50.506;30.834;2022-07-23T05:40:24;100174.05;;;29.68;37.95
50592;BME280;36548;50.506;30.834;2022-07-23T05:41:34;100172.80;;;29.64;37.74
50592;BME280;36548;50.506;30.834;2022-07-23T05:42:45;100166.67;;;29.62;37.98
50592;BME280;36548;50.506;30.834;2022-07-23T05:43:54;100172.02;;;29.56;37.75
50592;BME280;36548;50.506;30.834;2022-07-23T05:45:05;100169.61;;;29.67;37.49
50592;BME280;36548;50.506;30.834;2022-07-23T05:46:17;100174.62;;;29.76;37.29
50592;BME280;36548;50.506;30.834;2022-07-23T05:47:45;100176.98;;;29.73;37.13
50592;BME280;36548;50.506;30.834;2022-07-23T05:48:57;100184.10;;;29.62;37.15
50592;BME280;36548;50.506;30.834;2022-07-23T05:50:14;100175.86;;;29.81;37.53
50592;BME280;36548;50.506;30.834;2022-07-23T05:51:28;100181.16;;;29.82;37.43
50592;BME280;36548;50.506;30.834;2022-07-23T05:52:55;100171.73;;;29.90;36.90
50592;BME280;36548;50.506;30.834;2022-07-23T05:54:23;100179.37;;;29.95;36.23
50592;BME280;36548;50.506;30.834;2022-07-23T05:55:33;100172.53;;;29.97;36.54
50592;BME280;36548;50.506;30.834;2022-07-23T05:56:43;100169.23;;;30.07;36.22
50592;BME280;36548;50.506;30.834;2022-07-23T05:57:53;100173.13;;;29.99;36.31
50592;BME280;36548;50.506;30.834;2022-07-23T05:59:03;100170.13;;;30.01;36.06
50592;BME280;36548;50.506;30.834;2022-07-23T06:00:15;100173.90;;;30.06;36.12
50592;BME280;36548;50.506;30.834;2022-07-23T06:01:30;100171.52;;;30.29;36.12
50592;BME280;36548;50.506;30.834;2022-07-23T06:02:51;100176.06;;;30.23;35.89
50592;BME280;36548;50.506;30.834;2022-07-23T06:04:06;100180.77;;;30.22;36.10
50592;BME280;36548;50.506;30.834;2022-07-23T06:05:18;100170.00;;;30.14;36.06
50592;BME280;36548;50.506;30.834;2022-07-23T06:06:29;100174.99;;;30.24;36.06
50592;BME280;36548;50.506;30.834;2022-07-23T06:07:50;100168.79;;;30.47;35.08
50592;BME280;36548;50.506;30.834;2022-07-23T06:09:00;100169.86;;;30.46;35.33
50592;BME280;36548;50.506;30.834;2022-07-23T06:10:11;100168.67;;;30.54;34.78
50592;BME280;36548;50.506;30.834;2022-07-23T06:11:21;100167.69;;;30.48;35.00
50592;BME280;36548;50.506;30.834;2022-07-23T06:12:36;100167.91;;;30.65;34.84
50592;BME280;36548;50.506;30.834;2022-07-23T06:13:46;100162.45;;;30.58;34.60
50592;BME280;36548;50.506;30.834;2022-07-23T06:14:56;100167.53;;;30.43;34.51
50592;BME280;36548;50.506;30.834;2022-07-23T06:16:16;100164.08;;;30.48;34.29
50592;BME280;36548;50.506;30.834;2022-07-23T06:17:27;100163.73;;;30.37;34.12
50592;BME280;36548;50.506;30.834;2022-07-23T06:18:37;100158.07;;;30.32;33.73
50592;BME280;36548;50.506;30.834;2022-07-23T06:19:47;100160.68;;;30.27;33.82
50592;BME280;36548;50.506;30.834;2022-07-23T06:20:59;100164.56;;;29.82;34.28
50592;BME280;36548;50.506;30.834;2022-07-23T06:22:14;100166.61;;;29.68;34.90
50592;BME280;36548;50.506;30.834;2022-07-23T06:23:24;100176.37;;;29.71;35.05
50592;BME280;36548;50.506;30.834;2022-07-23T06:24:39;100155.77;;;29.92;34.90
50592;BME280;36548;50.506;30.834;2022-07-23T06:25:48;100165.67;;;30.00;35.02
50592;BME280;36548;50.506;30.834;2022-07-23T06:27:15;100171.46;;;30.17;34.70
50592;BME280;36548;50.506;30.834;2022-07-23T06:28:23;100164.67;;;30.31;34.46
50592;BME280;36548;50.506;30.834;2022-07-23T06:29:33;100173.92;;;30.25;34.67
50592;BME280;36548;50.506;30.834;2022-07-23T06:30:48;100162.74;;;30.32;34.49
50592;BME280;36548;50.506;30.834;2022-07-23T06:31:58;100164.91;;;30.30;34.68
50592;BME280;36548;50.506;30.834;2022-07-23T06:33:07;100165.44;;;30.38;34.49
50592;BME280;36548;50.506;30.834;2022-07-23T06:34:22;100167.52;;;30.62;33.98
50592;BME280;36548;50.506;30.834;2022-07-23T06:35:33;100174.76;;;30.63;33.92
50592;BME280;36548;50.506;30.834;2022-07-23T06:36:43;100174.77;;;30.44;33.68
50592;BME280;36548;50.506;30.834;2022-07-23T06:37:54;100171.47;;;29.48;35.18